sensor_id;sensor_type;location;lat;lon;timestamp;P1;durP1;ratioP1;P2;durP2;ratioP2
31336;SDS011;22846;42.654;23.314;2024-01-06T00:02:06;15.93;;;11.85;;
31336;SDS011;22846;42.654;23.314;2024-01-06T00:04:32;16.17;;;10.85;;
31336;SDS011;22846;42.654;23.314;2024-01-06T00:06:57;13.52;;;10.13;;
31336;SDS011;22846;42.654;23.314;2024-01-06T00:09:23;13.18;;;9.90;;
31336;SDS011;22846;42.654;23.314;2024-01-06T00:11:48;14.68;;;10.10;;
31336;SDS011;22846;42.654;23.314;2024-01-06T00:14:14;13.65;;;10.15;;
31336;SDS011;22846;42.654;23.314;2024-01-06T00:16:39;14.23;;;10.02;;
31336;SDS011;22846;42.654;23.314;2024-01-06T00:19:05;14.18;;;10.40;;
31336;SDS011;22846;42.654;23.314;2024-01-06T00:21:30;12.45;;;9.93;;
31336;SDS011;22846;42.654;23.314;2024-01-06T00:23:56;13.18;;;10.10;;
31336;SDS011;22846;42.654;23.314;2024-01-06T00:26:21;12.60;;;9.20;;
31336;SDS011;22846;42.654;23.314;2024-01-06T00:28:47;14.20;;;9.93;;
31336;SDS011;22846;42.654;23.314;2024-01-06T00:31:15;12.88;;;9.32;;
31336;SDS011;22846;42.654;23.314;2024-01-06T00:33:42;14.32;;;9.88;;
31336;SDS011;22846;42.654;23.314;2024-01-06T00:36:08;11.98;;;9.73;;
31336;SDS011;22846;42.654;23.314;2024-01-06T00:38:34;14.43;;;10.10;;
31336;SDS011;22846;42.654;23.314;2024-01-06T00:41:00;15.45;;;9.10;;
31336;SDS011;22846;42.654;23.314;2024-01-06T00:43:26;12.77;;;9.18;;
31336;SDS011;22846;42.654;23.314;2024-01-06T00:45:51;13.25;;;9.20;;
31336;SDS011;22846;42.654;23.314;2024-01-06T00:48:17;11.93;;;8.70;;
31336;SDS011;22846;42.654;23.314;2024-01-06T00:50:43;14.07;;;9.23;;
31336;SDS011;22846;42.654;23.314;2024-01-06T00:53:08;12.10;;;9.00;;
31336;SDS011;22846;42.654;23.314;2024-01-06T00:55:33;11.67;;;8.23;;
31336;SDS011;22846;42.654;23.314;2024-01-06T00:57:59;11.65;;;9.10;;
31336;SDS011;22846;42.654;23.314;2024-01-06T01:00:24;10.65;;;8.35;;
31336;SDS011;22846;42.654;23.314;2024-01-06T01:02:52;12.73;;;8.10;;
31336;SDS011;22846;42.654;23.314;2024-01-06T01:05:17;11.65;;;8.48;;
31336;SDS011;22846;42.654;23.314;2024-01-06T01:07:43;11.52;;;8.80;;
31336;SDS011;22846;42.654;23.314;2024-01-06T01:10:08;11.75;;;7.90;;
31336;SDS011;22846;42.654;23.314;2024-01-06T01:12:34;10.52;;;7.72;;
31336;SDS011;22846;42.654;23.314;2024-01-06T01:15:00;11.88;;;8.18;;
31336;SDS011;22846;42.654;23.314;2024-01-06T01:17:25;15.77;;;8.65;;
31336;SDS011;22846;42.654;23.314;2024-01-06T01:19:51;13.10;;;7.78;;
31336;SDS011;22846;42.654;23.314;2024-01-06T01:22:16;11.75;;;8.23;;
31336;SDS011;22846;42.654;23.314;2024-01-06T01:24:42;10.82;;;8.02;;
31336;SDS011;22846;42.654;23.314;2024-01-06T01:27:07;12.05;;;8.57;;
31336;SDS011;22846;42.654;23.314;2024-01-06T01:29:33;11.85;;;7.53;;
31336;SDS011;22846;42.654;23.314;2024-01-06T01:31:58;11.05;;;7.82;;
31336;SDS011;22846;42.654;23.314;2024-01-06T01:34:24;10.63;;;7.35;;
31336;SDS011;22846;42.654;23.314;2024-01-06T01:36:49;10.18;;;7.43;;
31336;SDS011;22846;42.654;23.314;2024-01-06T01:39:15;10.23;;;7.35;;
31336;SDS011;22846;42.654;23.314;2024-01-06T01:41:40;10.15;;;7.18;;
31336;SDS011;22846;42.654;23.314;2024-01-06T01:44:06;11.13;;;7.35;;
31336;SDS011;22846;42.654;23.314;2024-01-06T01:46:31;9.13;;;6.97;;
31336;SDS011;22846;42.654;23.314;2024-01-06T01:48:58;9.65;;;7.28;;
31336;SDS011;22846;42.654;23.314;2024-01-06T01:51:32;10.65;;;6.75;;
31336;SDS011;22846;42.654;23.314;2024-01-06T01:53:59;9.85;;;6.88;;
31336;SDS011;22846;42.654;23.314;2024-01-06T01:56:26;9.30;;;6.85;;
31336;SDS011;22846;42.654;23.314;2024-01-06T01:58:52;9.27;;;6.90;;
31336;SDS011;22846;42.654;23.314;2024-01-06T02:01:18;10.63;;;7.45;;
31336;SDS011;22846;42.654;23.314;2024-01-06T02:03:43;10.38;;;6.70;;
31336;SDS011;22846;42.654;23.314;2024-01-06T02:06:09;10.77;;;7.35;;
31336;SDS011;22846;42.654;23.314;2024-01-06T02:08:35;9.68;;;6.70;;
31336;SDS011;22846;42.654;23.314;2024-01-06T02:11:01;9.98;;;6.65;;
31336;SDS011;22846;42.654;23.314;2024-01-06T02:13:36;9.85;;;6.78;;
31336;SDS011;22846;42.654;23.314;2024-01-06T02:16:03;9.18;;;6.70;;
31336;SDS011;22846;42.654;23.314;2024-01-06T02:18:30;9.52;;;6.65;;
31336;SDS011;22846;42.654;23.314;2024-01-06T02:20:59;9.80;;;6.72;;
31336;SDS011;22846;42.654;23.314;2024-01-06T02:23:28;10.00;;;6.68;;
31336;SDS011;22846;42.654;23.314;2024-01-06T02:25:54;7.97;;;6.28;;
31336;SDS011;22846;42.654;23.314;2024-01-06T02:28:20;9.75;;;6.55;;
31336;SDS011;22846;42.654;23.314;2024-01-06T02:30:46;7.40;;;5.45;;
31336;SDS011;22846;42.654;23.314;2024-01-06T02:33:11;8.07;;;6.13;;
31336;SDS011;22846;42.654;23.314;2024-01-06T02:35:37;8.60;;;6.15;;
31336;SDS011;22846;42.654;23.314;2024-01-06T02:38:02;8.70;;;6.13;;
31336;SDS011;22846;42.654;23.314;2024-01-06T02:40:28;8.73;;;6.50;;
31336;SDS011;22846;42.654;23.314;2024-01-06T02:42:53;7.90;;;5.68;;
31336;SDS011;22846;42.654;23.314;2024-01-06T02:45:19;8.25;;;5.72;;
31336;SDS011;22846;42.654;23.314;2024-01-06T02:47:44;9.88;;;6.25;;
31336;SDS011;22846;42.654;23.314;2024-01-06T02:50:10;8.00;;;5.72;;
31336;SDS011;22846;42.654;23.314;2024-01-06T02:52:36;8.52;;;6.20;;
31336;SDS011;22846;42.654;23.314;2024-01-06T02:55:01;10.02;;;6.03;;
31336;SDS011;22846;42.654;23.314;2024-01-06T02:57:27;7.85;;;5.38;;
31336;SDS011;22846;42.654;23.314;2024-01-06T02:59:54;8.02;;;5.55;;
31336;SDS011;22846;42.654;23.314;2024-01-06T03:02:20;8.57;;;5.80;;
31336;SDS011;22846;42.654;23.314;2024-01-06T03:04:45;8.27;;;5.75;;
31336;SDS011;22846;42.654;23.314;2024-01-06T03:07:10;8.25;;;5.78;;
31336;SDS011;22846;42.654;23.314;2024-01-06T03:09:36;7.75;;;5.53;;
31336;SDS011;22846;42.654;23.314;2024-01-06T03:12:03;6.95;;;5.22;;
31336;SDS011;22846;42.654;23.314;2024-01-06T03:14:31;7.93;;;5.10;;
31336;SDS011;22846;42.654;23.314;2024-01-06T03:16:56;8.57;;;5.60;;
31336;SDS011;22846;42.654;23.314;2024-01-06T03:19:23;8.00;;;5.65;;
31336;SDS011;22846;42.654;23.314;2024-01-06T03:21:51;8.82;;;5.82;;
31336;SDS011;22846;42.654;23.314;2024-01-06T03:24:16;7.57;;;5.68;;
31336;SDS011;22846;42.654;23.314;2024-01-06T03:26:42;8.10;;;5.47;;
31336;SDS011;22846;42.654;23.314;2024-01-06T03:29:07;8.65;;;5.43;;
31336;SDS011;22846;42.654;23.314;2024-01-06T03:31:33;6.95;;;4.78;;
31336;SDS011;22846;42.654;23.314;2024-01-06T03:33:58;6.53;;;4.95;;
31336;SDS011;22846;42.654;23.314;2024-01-06T03:36:23;7.70;;;5.20;;
31336;SDS011;22846;42.654;23.314;2024-01-06T03:38:49;7.90;;;5.53;;
31336;SDS011;22846;42.654;23.314;2024-01-06T03:41:14;6.90;;;5.05;;
31336;SDS011;22846;42.654;23.314;2024-01-06T03:43:40;6.85;;;4.85;;
31336;SDS011;22846;42.654;23.314;2024-01-06T03:46:05;7.88;;;4.78;;
31336;SDS011;22846;42.654;23.314;2024-01-06T03:48:31;7.45;;;5.10;;
31336;SDS011;22846;42.654;23.314;2024-01-06T03:50:57;10.23;;;5.05;;
31336;SDS011;22846;42.654;23.314;2024-01-06T03:53:24;7.22;;;4.85;;
31336;SDS011;22846;42.654;23.314;2024-01-06T03:55:49;7.57;;;4.78;;
31336;SDS011;22846;42.654;23.314;2024-01-06T03:58:15;5.43;;;4.38;;
31336;SDS011;22846;42.654;23.314;2024-01-06T04:00:40;6.47;;;4.78;;
31336;SDS011;22846;42.654;23.314;2024-01-06T04:03:05;6.95;;;4.53;;
31336;SDS011;22846;42.654;23.314;2024-01-06T04:05:31;6.45;;;4.70;;
31336;SDS011;22846;42.654;23.314;2024-01-06T04:07:57;6.30;;;4.45;;
31336;SDS011;22846;42.654;23.314;2024-01-06T04:10:22;5.88;;;4.30;;
31336;SDS011;22846;42.654;23.314;2024-01-06T04:12:48;6.03;;;4.38;;
31336;SDS011;22846;42.654;23.314;2024-01-06T04:15:13;6.28;;;4.32;;
31336;SDS011;22846;42.654;23.314;2024-01-06T04:17:39;6.40;;;4.07;;
31336;SDS011;22846;42.654;23.314;2024-01-06T04:20:04;5.80;;;4.40;;
31336;SDS011;22846;42.654;23.314;2024-01-06T04:22:30;7.95;;;4.70;;
31336;SDS011;22846;42.654;23.314;2024-01-06T04:24:56;7.35;;;4.57;;
31336;SDS011;22846;42.654;23.314;2024-01-06T04:27:21;5.30;;;4.03;;
31336;SDS011;22846;42.654;23.314;2024-01-06T04:29:46;6.15;;;4.05;;
31336;SDS011;22846;42.654;23.314;2024-01-06T04:32:12;6.85;;;4.65;;
31336;SDS011;22846;42.654;23.314;2024-01-06T04:34:37;7.32;;;4.40;;
31336;SDS011;22846;42.654;23.314;2024-01-06T04:37:03;5.15;;;3.88;;
31336;SDS011;22846;42.654;23.314;2024-01-06T04:39:28;5.13;;;4.00;;
31336;SDS011;22846;42.654;23.314;2024-01-06T04:41:54;4.50;;;3.75;;
31336;SDS011;22846;42.654;23.314;2024-01-06T04:44:20;5.65;;;4.18;;
31336;SDS011;22846;42.654;23.314;2024-01-06T04:46:46;4.95;;;3.75;;
31336;SDS011;22846;42.654;23.314;2024-01-06T04:49:11;6.00;;;4.28;;
31336;SDS011;22846;42.654;23.314;2024-01-06T04:51:37;5.18;;;3.67;;
31336;SDS011;22846;42.654;23.314;2024-01-06T04:54:03;4.70;;;3.70;;
31336;SDS011;22846;42.654;23.314;2024-01-06T04:56:28;5.35;;;3.83;;
31336;SDS011;22846;42.654;23.314;2024-01-06T04:58:53;5.25;;;4.07;;
31336;SDS011;22846;42.654;23.314;2024-01-06T05:01:19;7.07;;;4.15;;
31336;SDS011;22846;42.654;23.314;2024-01-06T05:03:45;5.57;;;3.92;;
31336;SDS011;22846;42.654;23.314;2024-01-06T05:06:10;7.50;;;3.70;;
31336;SDS011;22846;42.654;23.314;2024-01-06T05:08:36;5.45;;;3.65;;
31336;SDS011;22846;42.654;23.314;2024-01-06T05:11:06;5.18;;;3.97;;
31336;SDS011;22846;42.654;23.314;2024-01-06T05:13:32;5.25;;;3.65;;
31336;SDS011;22846;42.654;23.314;2024-01-06T05:15:57;4.40;;;3.17;;
31336;SDS011;22846;42.654;23.314;2024-01-06T05:18:23;5.55;;;3.60;;
31336;SDS011;22846;42.654;23.314;2024-01-06T05:20:48;4.43;;;3.30;;
31336;SDS011;22846;42.654;23.314;2024-01-06T05:23:13;4.57;;;3.38;;
31336;SDS011;22846;42.654;23.314;2024-01-06T05:25:39;4.75;;;3.40;;
31336;SDS011;22846;42.654;23.314;2024-01-06T05:28:04;4.35;;;3.00;;
31336;SDS011;22846;42.654;23.314;2024-01-06T05:30:30;4.90;;;3.50;;
31336;SDS011;22846;42.654;23.314;2024-01-06T05:32:55;3.63;;;3.20;;
31336;SDS011;22846;42.654;23.314;2024-01-06T05:35:20;4.32;;;3.00;;
31336;SDS011;22846;42.654;23.314;2024-01-06T05:37:46;4.05;;;3.10;;
31336;SDS011;22846;42.654;23.314;2024-01-06T05:40:12;5.30;;;3.38;;
31336;SDS011;22846;42.654;23.314;2024-01-06T05:42:39;4.50;;;3.15;;
31336;SDS011;22846;42.654;23.314;2024-01-06T05:45:05;4.25;;;3.17;;
31336;SDS011;22846;42.654;23.314;2024-01-06T05:47:30;5.10;;;3.03;;
31336;SDS011;22846;42.654;23.314;2024-01-06T05:49:56;4.07;;;2.92;;
31336;SDS011;22846;42.654;23.314;2024-01-06T05:52:22;4.57;;;3.15;;
31336;SDS011;22846;42.654;23.314;2024-01-06T05:54:48;4.40;;;3.22;;
31336;SDS011;22846;42.654;23.314;2024-01-06T05:57:14;4.55;;;3.22;;
31336;SDS011;22846;42.654;23.314;2024-01-06T05:59:39;3.90;;;2.92;;
31336;SDS011;22846;42.654;23.314;2024-01-06T06:02:05;4.40;;;3.15;;
31336;SDS011;22846;42.654;23.314;2024-01-06T06:04:31;4.38;;;2.88;;
31336;SDS011;22846;42.654;23.314;2024-01-06T06:06:56;4.18;;;2.90;;
31336;SDS011;22846;42.654;23.314;2024-01-06T06:09:21;4.32;;;2.78;;
31336;SDS011;22846;42.654;23.314;2024-01-06T06:11:47;4.03;;;3.08;;
31336;SDS011;22846;42.654;23.314;2024-01-06T06:14:13;3.67;;;2.63;;
31336;SDS011;22846;42.654;23.314;2024-01-06T06:16:39;4.57;;;2.90;;
31336;SDS011;22846;42.654;23.314;2024-01-06T06:19:04;3.35;;;2.53;;
31336;SDS011;22846;42.654;23.314;2024-01-06T06:21:30;3.80;;;2.90;;
31336;SDS011;22846;42.654;23.314;2024-01-06T06:23:55;3.58;;;2.60;;
31336;SDS011;22846;42.654;23.314;2024-01-06T06:26:20;4.80;;;2.83;;
31336;SDS011;22846;42.654;23.314;2024-01-06T06:28:46;4.78;;;2.95;;
31336;SDS011;22846;42.654;23.314;2024-01-06T06:31:13;3.78;;;2.67;;
31336;SDS011;22846;42.654;23.314;2024-01-06T06:33:38;3.10;;;2.67;;
31336;SDS011;22846;42.654;23.314;2024-01-06T06:36:04;3.03;;;2.65;;
31336;SDS011;22846;42.654;23.314;2024-01-06T06:38:31;3.28;;;2.63;;
31336;SDS011;22846;42.654;23.314;2024-01-06T06:40:56;3.28;;;2.53;;
31336;SDS011;22846;42.654;23.314;2024-01-06T06:43:21;3.35;;;2.85;;
31336;SDS011;22846;42.654;23.314;2024-01-06T06:45:47;4.50;;;2.40;;
31336;SDS011;22846;42.654;23.314;2024-01-06T06:48:12;3.75;;;2.80;;
31336;SDS011;22846;42.654;23.314;2024-01-06T06:50:38;3.85;;;2.70;;
31336;SDS011;22846;42.654;23.314;2024-01-06T06:53:03;4.40;;;2.80;;
31336;SDS011;22846;42.654;23.314;2024-01-06T06:55:29;2.78;;;2.40;;
31336;SDS011;22846;42.654;23.314;2024-01-06T06:57:54;3.80;;;2.60;;
31336;SDS011;22846;42.654;23.314;2024-01-06T07:00:21;3.38;;;2.60;;
31336;SDS011;22846;42.654;23.314;2024-01-06T07:02:46;2.95;;;2.30;;
31336;SDS011;22846;42.654;23.314;2024-01-06T07:05:12;2.90;;;2.40;;
31336;SDS011;22846;42.654;23.314;2024-01-06T07:07:38;2.72;;;2.35;;
31336;SDS011;22846;42.654;23.314;2024-01-06T07:10:04;3.45;;;2.60;;
31336;SDS011;22846;42.654;23.314;2024-01-06T07:12:30;2.72;;;2.40;;
31336;SDS011;22846;42.654;23.314;2024-01-06T07:14:56;3.33;;;2.25;;
31336;SDS011;22846;42.654;23.314;2024-01-06T07:17:23;3.00;;;2.50;;
31336;SDS011;22846;42.654;23.314;2024-01-06T07:19:49;4.45;;;2.20;;
31336;SDS011;22846;42.654;23.314;2024-01-06T07:22:15;2.97;;;2.20;;
31336;SDS011;22846;42.654;23.314;2024-01-06T07:24:41;3.40;;;2.38;;
31336;SDS011;22846;42.654;23.314;2024-01-06T07:27:07;3.17;;;2.45;;
31336;SDS011;22846;42.654;23.314;2024-01-06T07:29:32;4.72;;;2.60;;
31336;SDS011;22846;42.654;23.314;2024-01-06T07:31:58;6.88;;;3.35;;
31336;SDS011;22846;42.654;23.314;2024-01-06T07:34:23;25.90;;;12.63;;
31336;SDS011;22846;42.654;23.314;2024-01-06T07:36:50;45.55;;;28.00;;
31336;SDS011;22846;42.654;23.314;2024-01-06T07:39:16;55.90;;;37.38;;
31336;SDS011;22846;42.654;23.314;2024-01-06T07:41:41;53.80;;;32.90;;
31336;SDS011;22846;42.654;23.314;2024-01-06T07:44:07;34.00;;;19.92;;
31336;SDS011;22846;42.654;23.314;2024-01-06T07:46:32;30.67;;;20.58;;
31336;SDS011;22846;42.654;23.314;2024-01-06T07:48:58;33.00;;;18.70;;
31336;SDS011;22846;42.654;23.314;2024-01-06T07:51:23;30.52;;;17.25;;
31336;SDS011;22846;42.654;23.314;2024-01-06T07:53:50;25.50;;;16.67;;
31336;SDS011;22846;42.654;23.314;2024-01-06T07:56:16;28.02;;;15.40;;
31336;SDS011;22846;42.654;23.314;2024-01-06T07:58:41;24.05;;;12.70;;
31336;SDS011;22846;42.654;23.314;2024-01-06T08:01:07;19.02;;;13.80;;
31336;SDS011;22846;42.654;23.314;2024-01-06T08:03:33;20.42;;;12.93;;
31336;SDS011;22846;42.654;23.314;2024-01-06T08:05:58;18.17;;;11.70;;
31336;SDS011;22846;42.654;23.314;2024-01-06T08:08:27;15.65;;;11.25;;
31336;SDS011;22846;42.654;23.314;2024-01-06T08:10:53;16.85;;;11.02;;
31336;SDS011;22846;42.654;23.314;2024-01-06T08:13:18;17.75;;;10.32;;
31336;SDS011;22846;42.654;23.314;2024-01-06T08:15:44;15.20;;;11.13;;
31336;SDS011;22846;42.654;23.314;2024-01-06T08:18:09;15.48;;;9.63;;
31336;SDS011;22846;42.654;23.314;2024-01-06T08:20:35;15.60;;;10.25;;
31336;SDS011;22846;42.654;23.314;2024-01-06T08:23:00;15.90;;;9.13;;
31336;SDS011;22846;42.654;23.314;2024-01-06T08:25:25;14.05;;;9.20;;
31336;SDS011;22846;42.654;23.314;2024-01-06T08:27:51;14.25;;;8.95;;
31336;SDS011;22846;42.654;23.314;2024-01-06T08:30:16;13.75;;;9.07;;
31336;SDS011;22846;42.654;23.314;2024-01-06T08:32:41;13.50;;;8.68;;
31336;SDS011;22846;42.654;23.314;2024-01-06T08:35:07;14.05;;;7.85;;
31336;SDS011;22846;42.654;23.314;2024-01-06T08:37:33;12.35;;;8.20;;
31336;SDS011;22846;42.654;23.314;2024-01-06T08:39:58;13.40;;;8.32;;
31336;SDS011;22846;42.654;23.314;2024-01-06T08:42:24;15.75;;;7.78;;
31336;SDS011;22846;42.654;23.314;2024-01-06T08:44:51;12.20;;;7.50;;
31336;SDS011;22846;42.654;23.314;2024-01-06T08:47:16;12.48;;;7.85;;
31336;SDS011;22846;42.654;23.314;2024-01-06T08:49:42;13.52;;;8.13;;
31336;SDS011;22846;42.654;23.314;2024-01-06T08:52:07;12.77;;;7.72;;
31336;SDS011;22846;42.654;23.314;2024-01-06T08:54:33;12.75;;;7.55;;
31336;SDS011;22846;42.654;23.314;2024-01-06T08:56:59;15.80;;;8.20;;
31336;SDS011;22846;42.654;23.314;2024-01-06T08:59:25;12.18;;;7.18;;
31336;SDS011;22846;42.654;23.314;2024-01-06T09:01:50;20.58;;;8.10;;
31336;SDS011;22846;42.654;23.314;2024-01-06T09:04:17;15.43;;;7.50;;
31336;SDS011;22846;42.654;23.314;2024-01-06T09:06:42;32.67;;;10.65;;
31336;SDS011;22846;42.654;23.314;2024-01-06T09:09:08;21.92;;;9.48;;
31336;SDS011;22846;42.654;23.314;2024-01-06T09:11:34;21.27;;;8.23;;
31336;SDS011;22846;42.654;23.314;2024-01-06T09:14:00;17.40;;;7.68;;
31336;SDS011;22846;42.654;23.314;2024-01-06T09:16:26;13.07;;;6.93;;
31336;SDS011;22846;42.654;23.314;2024-01-06T09:18:51;13.40;;;6.40;;
31336;SDS011;22846;42.654;23.314;2024-01-06T09:21:17;12.63;;;6.18;;
31336;SDS011;22846;42.654;23.314;2024-01-06T09:23:42;13.55;;;6.32;;
31336;SDS011;22846;42.654;23.314;2024-01-06T09:26:08;11.95;;;5.95;;
31336;SDS011;22846;42.654;23.314;2024-01-06T09:28:34;13.23;;;6.28;;
31336;SDS011;22846;42.654;23.314;2024-01-06T09:30:59;12.82;;;5.78;;
31336;SDS011;22846;42.654;23.314;2024-01-06T09:33:24;11.10;;;6.53;;
31336;SDS011;22846;42.654;23.314;2024-01-06T09:35:50;12.50;;;7.03;;
31336;SDS011;22846;42.654;23.314;2024-01-06T09:38:15;12.40;;;6.75;;
31336;SDS011;22846;42.654;23.314;2024-01-06T09:40:43;15.32;;;6.88;;
31336;SDS011;22846;42.654;23.314;2024-01-06T09:43:10;14.30;;;6.50;;
31336;SDS011;22846;42.654;23.314;2024-01-06T09:45:36;10.73;;;5.88;;
31336;SDS011;22846;42.654;23.314;2024-01-06T09:48:03;11.13;;;6.50;;
31336;SDS011;22846;42.654;23.314;2024-01-06T09:50:40;20.65;;;6.97;;
31336;SDS011;22846;42.654;23.314;2024-01-06T09:53:10;16.70;;;7.10;;
31336;SDS011;22846;42.654;23.314;2024-01-06T09:55:36;16.05;;;7.13;;
31336;SDS011;22846;42.654;23.314;2024-01-06T09:58:03;16.40;;;6.50;;
31336;SDS011;22846;42.654;23.314;2024-01-06T10:00:30;14.98;;;6.03;;
31336;SDS011;22846;42.654;23.314;2024-01-06T10:02:55;18.52;;;6.30;;
31336;SDS011;22846;42.654;23.314;2024-01-06T10:05:20;14.45;;;6.60;;
31336;SDS011;22846;42.654;23.314;2024-01-06T10:07:48;12.10;;;6.03;;
31336;SDS011;22846;42.654;23.314;2024-01-06T10:10:14;10.82;;;5.90;;
31336;SDS011;22846;42.654;23.314;2024-01-06T10:12:40;12.98;;;5.47;;
31336;SDS011;22846;42.654;23.314;2024-01-06T10:15:07;11.02;;;5.57;;
31336;SDS011;22846;42.654;23.314;2024-01-06T10:17:38;9.25;;;5.65;;
31336;SDS011;22846;42.654;23.314;2024-01-06T10:20:11;13.23;;;5.95;;
31336;SDS011;22846;42.654;23.314;2024-01-06T10:25:06;8.82;;;5.20;;
31336;SDS011;22846;42.654;23.314;2024-01-06T10:27:34;11.20;;;5.68;;
31336;SDS011;22846;42.654;23.314;2024-01-06T10:30:00;10.95;;;5.90;;
31336;SDS011;22846;42.654;23.314;2024-01-06T10:32:26;10.15;;;5.68;;
31336;SDS011;22846;42.654;23.314;2024-01-06T10:34:54;8.75;;;5.63;;
31336;SDS011;22846;42.654;23.314;2024-01-06T10:37:20;9.35;;;5.78;;
31336;SDS011;22846;42.654;23.314;2024-01-06T10:39:45;10.85;;;5.43;;
31336;SDS011;22846;42.654;23.314;2024-01-06T10:42:11;8.48;;;5.32;;
31336;SDS011;22846;42.654;23.314;2024-01-06T10:44:38;9.88;;;5.07;;
31336;SDS011;22846;42.654;23.314;2024-01-06T10:47:05;8.95;;;5.32;;
31336;SDS011;22846;42.654;23.314;2024-01-06T10:49:31;10.13;;;5.28;;
31336;SDS011;22846;42.654;23.314;2024-01-06T10:51:57;8.85;;;5.38;;
31336;SDS011;22846;42.654;23.314;2024-01-06T10:54:24;6.95;;;4.95;;
31336;SDS011;22846;42.654;23.314;2024-01-06T10:56:52;7.25;;;4.70;;
31336;SDS011;22846;42.654;23.314;2024-01-06T10:59:18;9.18;;;5.30;;
31336;SDS011;22846;42.654;23.314;2024-01-06T11:01:47;7.03;;;4.68;;
31336;SDS011;22846;42.654;23.314;2024-01-06T11:04:15;9.10;;;4.75;;
31336;SDS011;22846;42.654;23.314;2024-01-06T11:06:41;6.80;;;4.25;;
31336;SDS011;22846;42.654;23.314;2024-01-06T11:11:48;5.93;;;4.50;;
31336;SDS011;22846;42.654;23.314;2024-01-06T11:14:17;6.43;;;4.38;;
31336;SDS011;22846;42.654;23.314;2024-01-06T11:16:44;7.68;;;4.65;;
31336;SDS011;22846;42.654;23.314;2024-01-06T11:24:48;6.20;;;4.50;;
31336;SDS011;22846;42.654;23.314;2024-01-06T11:27:17;6.28;;;4.75;;
31336;SDS011;22846;42.654;23.314;2024-01-06T11:29:51;6.25;;;4.25;;
31336;SDS011;22846;42.654;23.314;2024-01-06T11:34:49;6.88;;;4.30;;
31336;SDS011;22846;42.654;23.314;2024-01-06T11:37:17;7.65;;;4.10;;
31336;SDS011;22846;42.654;23.314;2024-01-06T11:39:43;6.70;;;4.53;;
31336;SDS011;22846;42.654;23.314;2024-01-06T11:42:10;6.13;;;4.57;;
31336;SDS011;22846;42.654;23.314;2024-01-06T11:44:37;5.68;;;3.85;;
31336;SDS011;22846;42.654;23.314;2024-01-06T11:47:03;7.13;;;4.18;;
31336;SDS011;22846;42.654;23.314;2024-01-06T11:49:29;7.05;;;4.68;;
31336;SDS011;22846;42.654;23.314;2024-01-06T11:51:58;6.65;;;4.30;;
31336;SDS011;22846;42.654;23.314;2024-01-06T11:54:24;7.05;;;4.22;;
31336;SDS011;22846;42.654;23.314;2024-01-06T11:56:49;5.00;;;3.88;;
31336;SDS011;22846;42.654;23.314;2024-01-06T11:59:15;4.85;;;4.00;;
31336;SDS011;22846;42.654;23.314;2024-01-06T12:01:40;7.07;;;4.10;;
31336;SDS011;22846;42.654;23.314;2024-01-06T12:04:06;5.57;;;3.95;;
31336;SDS011;22846;42.654;23.314;2024-01-06T12:06:32;5.60;;;4.00;;
31336;SDS011;22846;42.654;23.314;2024-01-06T12:09:08;6.20;;;4.35;;
31336;SDS011;22846;42.654;23.314;2024-01-06T12:11:35;6.32;;;3.80;;
31336;SDS011;22846;42.654;23.314;2024-01-06T12:14:04;6.68;;;3.72;;
31336;SDS011;22846;42.654;23.314;2024-01-06T12:16:31;5.20;;;3.60;;
31336;SDS011;22846;42.654;23.314;2024-01-06T12:18:58;5.22;;;3.60;;
31336;SDS011;22846;42.654;23.314;2024-01-06T12:21:25;6.40;;;4.13;;
31336;SDS011;22846;42.654;23.314;2024-01-06T12:23:52;4.82;;;3.70;;
31336;SDS011;22846;42.654;23.314;2024-01-06T12:26:17;5.95;;;3.63;;
31336;SDS011;22846;42.654;23.314;2024-01-06T12:28:46;6.97;;;4.13;;
31336;SDS011;22846;42.654;23.314;2024-01-06T12:31:13;6.15;;;3.90;;
31336;SDS011;22846;42.654;23.314;2024-01-06T12:33:39;5.07;;;3.42;;
31336;SDS011;22846;42.654;23.314;2024-01-06T12:36:08;4.68;;;3.63;;
31336;SDS011;22846;42.654;23.314;2024-01-06T12:38:36;4.50;;;3.08;;
31336;SDS011;22846;42.654;23.314;2024-01-06T12:41:03;5.43;;;3.65;;
31336;SDS011;22846;42.654;23.314;2024-01-06T12:43:29;5.80;;;3.80;;
31336;SDS011;22846;42.654;23.314;2024-01-06T12:45:55;4.85;;;3.55;;
31336;SDS011;22846;42.654;23.314;2024-01-06T12:48:23;7.53;;;3.92;;
31336;SDS011;22846;42.654;23.314;2024-01-06T12:50:48;8.85;;;3.42;;
31336;SDS011;22846;42.654;23.314;2024-01-06T12:53:14;5.30;;;3.50;;
31336;SDS011;22846;42.654;23.314;2024-01-06T12:55:40;5.75;;;3.53;;
31336;SDS011;22846;42.654;23.314;2024-01-06T12:58:06;6.45;;;3.47;;
31336;SDS011;22846;42.654;23.314;2024-01-06T13:00:33;8.50;;;4.38;;
31336;SDS011;22846;42.654;23.314;2024-01-06T13:02:59;37.40;;;6.13;;
31336;SDS011;22846;42.654;23.314;2024-01-06T13:05:24;14.70;;;4.15;;
31336;SDS011;22846;42.654;23.314;2024-01-06T13:07:49;16.88;;;4.60;;
31336;SDS011;22846;42.654;23.314;2024-01-06T13:10:15;9.95;;;4.25;;
31336;SDS011;22846;42.654;23.314;2024-01-06T13:12:40;17.75;;;7.70;;
31336;SDS011;22846;42.654;23.314;2024-01-06T13:15:06;24.10;;;15.13;;
31336;SDS011;22846;42.654;23.314;2024-01-06T13:17:36;22.80;;;14.95;;
31336;SDS011;22846;42.654;23.314;2024-01-06T13:20:02;25.02;;;10.40;;
31336;SDS011;22846;42.654;23.314;2024-01-06T13:22:27;49.97;;;33.33;;
31336;SDS011;22846;42.654;23.314;2024-01-06T13:24:53;42.03;;;27.02;;
31336;SDS011;22846;42.654;23.314;2024-01-06T13:27:19;45.47;;;29.45;;
31336;SDS011;22846;42.654;23.314;2024-01-06T13:29:44;30.50;;;18.55;;
31336;SDS011;22846;42.654;23.314;2024-01-06T13:32:10;27.45;;;17.48;;
31336;SDS011;22846;42.654;23.314;2024-01-06T13:34:36;22.30;;;14.35;;
31336;SDS011;22846;42.654;23.314;2024-01-06T13:37:01;27.83;;;16.20;;
31336;SDS011;22846;42.654;23.314;2024-01-06T13:39:27;31.17;;;14.90;;
31336;SDS011;22846;42.654;23.314;2024-01-06T13:41:52;22.52;;;11.80;;
31336;SDS011;22846;42.654;23.314;2024-01-06T13:44:18;33.38;;;14.02;;
31336;SDS011;22846;42.654;23.314;2024-01-06T13:46:43;26.33;;;12.38;;
31336;SDS011;22846;42.654;23.314;2024-01-06T13:49:12;27.55;;;14.20;;
31336;SDS011;22846;42.654;23.314;2024-01-06T13:51:41;29.13;;;13.65;;
31336;SDS011;22846;42.654;23.314;2024-01-06T13:54:07;29.08;;;12.88;;
31336;SDS011;22846;42.654;23.314;2024-01-06T13:56:34;24.98;;;12.57;;
31336;SDS011;22846;42.654;23.314;2024-01-06T13:59:00;21.77;;;11.23;;
31336;SDS011;22846;42.654;23.314;2024-01-06T14:01:25;21.30;;;10.27;;
31336;SDS011;22846;42.654;23.314;2024-01-06T14:03:51;24.88;;;10.48;;
31336;SDS011;22846;42.654;23.314;2024-01-06T14:06:22;34.58;;;10.50;;
31336;SDS011;22846;42.654;23.314;2024-01-06T14:08:55;20.20;;;9.80;;
31336;SDS011;22846;42.654;23.314;2024-01-06T14:11:21;24.80;;;10.32;;
31336;SDS011;22846;42.654;23.314;2024-01-06T14:13:46;17.25;;;9.32;;
31336;SDS011;22846;42.654;23.314;2024-01-06T14:16:14;16.83;;;9.32;;
31336;SDS011;22846;42.654;23.314;2024-01-06T14:18:40;20.55;;;10.13;;
31336;SDS011;22846;42.654;23.314;2024-01-06T14:21:07;23.58;;;10.20;;
31336;SDS011;22846;42.654;23.314;2024-01-06T14:23:34;19.60;;;9.40;;
31336;SDS011;22846;42.654;23.314;2024-01-06T14:25:59;18.42;;;9.30;;
31336;SDS011;22846;42.654;23.314;2024-01-06T14:28:25;15.88;;;9.10;;
31336;SDS011;22846;42.654;23.314;2024-01-06T14:30:50;16.58;;;8.93;;
31336;SDS011;22846;42.654;23.314;2024-01-06T14:33:16;16.25;;;8.68;;